Accedi per prenotare

Caricamento...

Situazione Metar e Taf aeroporto Pisa - Effemeridi Aeroporto Lucca

[Source: ADDS]
METAR
LIRP 170845Z 11005KT CAVOK 15/09 Q1020 NOSIG =
LIRP 170500Z 1706/1806 13005KT CAVOK
TAF
LIRP 170500Z 1706/1806 13005KT CAVOK =
SR / SS: 05:36 / 16:34 UTC (Effemeridi LIQL 2021-10-17)